Terminal Aerodrome Forecast
Issued by NWS Springfield, MO

Home | Current Version | Previous Version | Text Only | Print | Product List | Glossary On
Versions: 1 2 3 4 5 6 7 8 9 10 11 12 13 14 15 16 17 18 19 20 21 22 23 24 25 26 27 28 29 30 31 32 33 34 35 36 37
000
FTUS43 KSGF 191519 AAC
TAFSGF
TAF AMD
KSGF 191519Z 1915/2012 15005KT 6SM BR OVC006
     FM200600 16006KT 4SM BR OVC006
     FM201000 15006KT 1SM BR OVC005=

USA.gov is the U.S. government's official web portal to all federal, state and local government web resources and services.